createdAt,value
2019-05-02T00:00:42.252Z,23.57
2019-05-02T00:03:17.819Z,23.95
2019-05-02T00:05:52.628Z,23.90
2019-05-02T00:08:29.310Z,24.07
2019-05-02T00:11:05.307Z,24.55
2019-05-02T00:13:40.566Z,24.50
2019-05-02T00:16:15.522Z,23.95
2019-05-02T00:18:50.230Z,23.83
2019-05-02T00:21:25.041Z,24.27
2019-05-02T00:24:03.054Z,23.75
2019-05-02T00:26:36.084Z,24.85
2019-05-02T00:29:10.848Z,24.45
2019-05-02T00:31:46.814Z,23.67
2019-05-02T00:34:22.035Z,23.75
2019-05-02T00:36:56.823Z,22.77
2019-05-02T00:39:31.406Z,23.00
2019-05-02T00:42:12.719Z,24.77
2019-05-02T00:45:00.843Z,24.45
2019-05-02T00:47:37.286Z,24.23
2019-05-02T00:50:12.920Z,24.82
2019-05-02T00:52:47.645Z,24.50
2019-05-02T00:55:22.404Z,23.62
2019-05-02T00:57:57.126Z,24.45
2019-05-02T01:00:33.538Z,24.80
2019-05-02T01:03:11.238Z,24.37
2019-05-02T01:05:44.718Z,25.45
2019-05-02T01:08:19.446Z,24.37
2019-05-02T01:10:56.968Z,24.60
2019-05-02T01:13:30.496Z,25.55
2019-05-02T01:16:05.248Z,24.87
2019-05-02T01:18:41.413Z,24.27
2019-05-02T01:21:16.614Z,24.77
2019-05-02T01:23:51.409Z,24.80
2019-05-02T01:26:29.197Z,24.57
2019-05-02T01:29:10.188Z,24.67
2019-05-02T01:31:54.782Z,25.50
2019-05-02T01:34:30.491Z,24.45
2019-05-02T01:37:20.378Z,25.92
2019-05-02T01:39:49.394Z,25.68
2019-05-02T01:42:24.097Z,25.05
2019-05-02T01:44:58.900Z,25.02
2019-05-02T01:47:34.199Z,25.23
2019-05-02T01:50:10.380Z,25.55
2019-05-02T01:52:45.079Z,25.02
2019-05-02T01:55:21.152Z,25.10
2019-05-02T01:57:56.118Z,24.15
2019-05-02T02:00:30.910Z,24.55
2019-05-02T02:03:09.072Z,24.72
2019-05-02T02:05:42.898Z,24.98
2019-05-02T02:08:17.586Z,25.52
2019-05-02T02:10:56.608Z,24.50
2019-05-02T02:13:31.323Z,24.72
2019-05-02T02:16:06.179Z,24.52
2019-05-02T02:18:51.794Z,23.32
2019-05-02T02:21:31.218Z,24.25
2019-05-02T02:24:10.058Z,23.18
2019-05-02T02:26:48.304Z,25.02
2019-05-02T02:29:21.177Z,24.30
2019-05-02T02:31:55.975Z,23.45
2019-05-02T02:34:32.484Z,24.65
2019-05-02T02:37:12.433Z,23.45
2019-05-02T02:39:48.438Z,25.00
2019-05-02T02:42:25.174Z,23.95
2019-05-02T02:44:57.947Z,22.93
2019-05-02T02:47:32.746Z,23.47
2019-05-02T02:50:07.468Z,24.02
2019-05-02T02:52:44.623Z,23.67
2019-05-02T02:55:22.250Z,23.73
2019-05-02T02:57:58.327Z,24.05
2019-05-02T03:00:31.374Z,24.23
2019-05-02T03:03:06.173Z,24.90
2019-05-02T03:05:40.876Z,24.30
2019-05-02T03:08:15.828Z,24.75
2019-05-02T03:10:50.694Z,23.65
2019-05-02T03:13:27.141Z,23.77
2019-05-02T03:16:16.629Z,23.05
2019-05-02T03:18:51.386Z,23.20
2019-05-02T03:21:26.142Z,23.12
2019-05-02T03:24:03.243Z,22.90
2019-05-02T03:26:37.292Z,24.12
2019-05-02T03:29:12.133Z,23.32
2019-05-02T03:31:46.895Z,23.12
2019-05-02T03:34:21.695Z,23.32
2019-05-02T03:37:03.351Z,22.10
2019-05-02T03:39:32.894Z,22.25
2019-05-02T03:42:07.662Z,21.52
2019-05-02T03:44:42.459Z,21.85
2019-05-02T03:47:17.224Z,22.05
2019-05-02T03:49:52.527Z,21.15
2019-05-02T03:52:27.349Z,20.50
2019-05-02T03:55:02.215Z,20.25
2019-05-02T03:57:41.433Z,20.70
2019-05-02T04:00:20.546Z,19.82
2019-05-02T04:02:58.975Z,20.08
2019-05-02T04:05:27.467Z,20.60
2019-05-02T04:08:02.243Z,20.35
2019-05-02T04:10:45.778Z,19.67
2019-05-02T04:13:21.385Z,19.55
2019-05-02T04:15:56.924Z,20.25
2019-05-02T04:18:31.689Z,20.23
2019-05-02T04:21:06.449Z,20.23
2019-05-02T04:23:41.886Z,20.55
2019-05-02T04:26:18.164Z,20.25
2019-05-02T04:28:53.813Z,18.55
2019-05-02T04:31:31.703Z,19.07
2019-05-02T04:34:14.246Z,18.45
2019-05-02T04:36:46.083Z,16.27
2019-05-02T04:39:21.463Z,16.80
2019-05-02T04:41:54.500Z,16.82
2019-05-02T04:44:39.785Z,15.65
2019-05-02T04:47:13.706Z,15.18
2019-05-02T04:49:41.993Z,15.43
2019-05-02T04:52:20.130Z,14.90
2019-05-02T04:54:53.438Z,13.90
2019-05-02T04:57:36.699Z,13.83
2019-05-02T05:00:11.487Z,13.62
2019-05-02T05:02:44.233Z,13.50
2019-05-02T05:05:25.650Z,13.32
2019-05-02T05:07:58.483Z,13.40
2019-05-02T05:10:40.754Z,14.13
2019-05-02T05:13:16.387Z,14.45
2019-05-02T05:15:51.829Z,14.80
2019-05-02T05:18:27.300Z,14.55
2019-05-02T05:21:01.796Z,14.87
2019-05-02T05:23:43.898Z,15.40
2019-05-02T05:26:19.794Z,14.93
2019-05-02T05:28:54.518Z,15.88
2019-05-02T05:31:29.424Z,16.10
2019-05-02T05:34:04.322Z,15.28
2019-05-02T05:36:39.018Z,15.30
2019-05-02T05:39:13.807Z,14.03
2019-05-02T05:41:52.343Z,15.08
2019-05-02T05:44:30.529Z,15.48
2019-05-02T05:47:01.171Z,14.95
2019-05-02T05:49:37.579Z,14.25
2019-05-02T05:52:12.393Z,15.45
2019-05-02T05:54:47.387Z,15.25
2019-05-02T05:57:22.229Z,14.87
2019-05-02T05:59:58.444Z,14.15
2019-05-02T06:02:50.088Z,13.83
2019-05-02T06:05:10.024Z,15.03
2019-05-02T06:07:45.049Z,14.15
2019-05-02T06:10:20.465Z,14.25
2019-05-02T06:12:55.245Z,14.53
2019-05-02T06:15:33.933Z,14.55
2019-05-02T06:18:07.415Z,14.23
2019-05-02T06:20:42.064Z,13.83
2019-05-02T06:23:16.762Z,13.48
2019-05-02T06:25:51.518Z,14.35
2019-05-02T06:28:26.354Z,14.43
2019-05-02T06:31:02.082Z,14.33
2019-05-02T06:33:37.626Z,14.65
2019-05-02T06:36:12.416Z,14.40
2019-05-02T06:38:47.262Z,15.00
2019-05-02T06:41:22.320Z,14.75
2019-05-02T06:43:57.133Z,14.35
2019-05-02T06:46:31.954Z,14.50
2019-05-02T06:49:06.712Z,14.53
2019-05-02T06:51:41.395Z,13.85
2019-05-02T06:54:18.120Z,13.80
2019-05-02T06:56:52.542Z,13.83
2019-05-02T06:59:27.230Z,14.45
2019-05-02T07:02:02.203Z,14.45
2019-05-02T07:04:36.907Z,14.40
2019-05-02T07:07:13.244Z,14.35
2019-05-02T07:09:48.384Z,14.93
2019-05-02T07:12:23.141Z,13.78
2019-05-02T07:15:01.683Z,14.40
2019-05-02T07:17:38.713Z,14.28
2019-05-02T07:20:14.293Z,13.60
2019-05-02T07:22:49.098Z,14.23
2019-05-02T07:25:23.786Z,14.28
2019-05-02T07:27:58.523Z,13.45
2019-05-02T07:30:35.073Z,13.83
2019-05-02T07:33:09.708Z,13.65
2019-05-02T07:35:44.403Z,13.83
2019-05-02T07:38:20.335Z,13.32
2019-05-02T07:40:55.522Z,13.32
2019-05-02T07:43:30.319Z,13.80
2019-05-02T07:46:05.080Z,13.15
2019-05-02T07:48:39.806Z,12.70
2019-05-02T07:51:17.289Z,12.95
2019-05-02T07:53:50.940Z,13.75
2019-05-02T07:56:25.694Z,12.75
2019-05-02T07:59:00.448Z,12.80
2019-05-02T08:01:35.179Z,12.90
2019-05-02T08:04:12.825Z,12.98
2019-05-02T08:06:46.454Z,12.20
2019-05-02T08:09:21.388Z,12.43
2019-05-02T08:11:56.150Z,12.58
2019-05-02T08:14:34.603Z,13.85
2019-05-02T08:17:16.155Z,13.55
2019-05-02T08:19:43.627Z,13.62
2019-05-02T08:22:18.388Z,12.53
2019-05-02T08:24:53.110Z,13.48
2019-05-02T08:27:34.436Z,13.43
2019-05-02T08:30:10.682Z,13.65
2019-05-02T08:32:45.377Z,13.08
2019-05-02T08:35:20.184Z,12.68
2019-05-02T08:37:56.079Z,13.28
2019-05-02T08:40:31.101Z,12.85
2019-05-02T08:43:09.262Z,14.53
2019-05-02T08:45:42.300Z,13.53
2019-05-02T08:48:16.984Z,12.95
2019-05-02T08:50:51.789Z,12.98
2019-05-02T08:53:26.477Z,13.72
2019-05-02T08:56:01.276Z,12.47
2019-05-02T08:58:35.904Z,12.23
2019-05-02T09:01:15.523Z,11.73
2019-05-02T09:03:55.018Z,12.23
2019-05-02T09:06:35.809Z,11.55
2019-05-02T09:09:10.577Z,11.20
2019-05-02T09:11:57.542Z,10.90
2019-05-02T09:14:21.700Z,11.08
2019-05-02T09:17:00.152Z,11.43
2019-05-02T09:19:34.849Z,12.50
2019-05-02T09:22:13.195Z,12.95
2019-05-02T09:24:45.601Z,12.25
2019-05-02T09:27:22.298Z,12.68
2019-05-02T09:29:56.787Z,12.63
2019-05-02T09:32:32.286Z,12.53
2019-05-02T09:35:07.361Z,11.83
2019-05-02T09:37:42.178Z,11.10
2019-05-02T09:40:17.033Z,11.03
2019-05-02T09:42:53.286Z,11.40
2019-05-02T09:45:33.403Z,11.70
2019-05-02T09:48:08.566Z,11.50
2019-05-02T09:50:43.271Z,12.03
2019-05-02T09:53:20.514Z,12.00
2019-05-02T09:55:57.737Z,10.08
2019-05-02T09:58:32.075Z,10.23
2019-05-02T10:01:22.349Z,10.10
2019-05-02T10:03:57.298Z,9.33
2019-05-02T10:06:34.068Z,8.58
2019-05-02T10:09:11.789Z,9.25
2019-05-02T10:11:45.872Z,9.43
2019-05-02T10:14:22.613Z,9.83
2019-05-02T10:16:57.710Z,10.23
2019-05-02T10:19:33.347Z,9.83
2019-05-02T10:22:08.181Z,9.75
2019-05-02T10:24:42.983Z,9.88
2019-05-02T10:27:17.779Z,9.55
2019-05-02T10:29:52.606Z,8.60
2019-05-02T10:32:27.331Z,7.90
2019-05-02T10:35:02.158Z,9.20
2019-05-02T10:37:38.331Z,9.45
2019-05-02T10:40:17.047Z,8.40
2019-05-02T10:42:49.818Z,7.40
2019-05-02T10:45:25.097Z,7.00
2019-05-02T10:48:02.135Z,7.35
2019-05-02T10:50:42.248Z,6.70
2019-05-02T10:55:52.399Z,6.90
2019-05-02T10:58:32.009Z,6.10
2019-05-02T11:01:04.482Z,6.53
2019-05-02T11:03:46.200Z,6.05
2019-05-02T11:06:17.224Z,5.97
2019-05-02T11:08:52.405Z,5.83
2019-05-02T11:11:27.688Z,5.72
2019-05-02T11:14:13.281Z,5.45
2019-05-02T11:16:52.593Z,6.08
2019-05-02T11:19:32.006Z,6.12
2019-05-02T11:22:06.801Z,6.50
2019-05-02T11:24:41.774Z,6.20
2019-05-02T11:27:16.679Z,6.67
2019-05-02T11:29:52.591Z,7.67
2019-05-02T11:32:27.514Z,8.03
2019-05-02T11:35:02.974Z,7.53
2019-05-02T11:37:37.770Z,7.87
2019-05-02T11:40:12.942Z,7.22
2019-05-02T11:42:47.919Z,7.80
2019-05-02T11:45:22.747Z,7.65
2019-05-02T11:48:01.776Z,7.25
2019-05-02T11:50:35.386Z,7.15
2019-05-02T11:53:24.766Z,6.83
2019-05-02T11:55:46.647Z,6.95
2019-05-02T11:58:22.961Z,6.90
2019-05-02T12:00:57.889Z,6.50
2019-05-02T12:03:52.585Z,6.25
2019-05-02T12:06:27.447Z,6.53
2019-05-02T12:09:22.331Z,5.80
2019-05-02T12:11:57.150Z,6.08
2019-05-02T12:14:36.126Z,6.92
2019-05-02T12:17:08.708Z,5.97
2019-05-02T12:19:43.489Z,6.05
2019-05-02T12:22:18.407Z,6.37
2019-05-02T12:24:53.164Z,6.55
2019-05-02T12:27:27.842Z,6.28
2019-05-02T12:30:03.298Z,5.42
2019-05-02T12:32:38.322Z,5.75
2019-05-02T12:35:13.186Z,5.95
2019-05-02T12:37:52.202Z,5.67
2019-05-02T12:40:24.788Z,5.12
2019-05-02T12:42:59.464Z,4.97
2019-05-02T12:45:34.257Z,5.70
2019-05-02T12:48:09.020Z,5.20
2019-05-02T12:50:43.766Z,5.45
2019-05-02T12:53:18.521Z,4.85
2019-05-02T12:55:53.238Z,5.20
2019-05-02T12:58:27.996Z,4.80
2019-05-02T13:01:02.973Z,4.50
2019-05-02T13:03:48.151Z,4.75
2019-05-02T13:06:22.974Z,5.42
2019-05-02T13:08:57.692Z,5.10
2019-05-02T13:11:52.308Z,4.65
2019-05-02T13:14:28.813Z,5.03
2019-05-02T13:17:05.763Z,4.50
2019-05-02T13:19:42.475Z,4.80
2019-05-02T13:22:21.779Z,4.30
2019-05-02T13:24:58.333Z,4.95
2019-05-02T13:27:43.390Z,4.47
2019-05-02T13:30:12.438Z,4.80
2019-05-02T13:32:53.854Z,5.28
2019-05-02T13:35:31.794Z,4.85
2019-05-02T13:38:06.709Z,4.92
2019-05-02T13:40:43.121Z,4.30
2019-05-02T13:43:18.583Z,4.00
2019-05-02T13:46:04.269Z,4.20
2019-05-02T13:48:39.132Z,4.05
2019-05-02T13:51:13.897Z,4.37
2019-05-02T13:53:52.970Z,4.33
2019-05-02T13:56:29.363Z,4.35
2019-05-02T13:59:04.525Z,3.98
2019-05-02T14:01:39.447Z,3.90
2019-05-02T14:04:15.001Z,3.60
2019-05-02T14:06:49.924Z,3.77
2019-05-02T14:09:29.373Z,3.95
2019-05-02T14:12:17.925Z,3.55
2019-05-02T14:14:52.646Z,3.65
2019-05-02T14:17:27.346Z,3.50
2019-05-02T14:20:10.774Z,3.55
2019-05-02T14:22:38.437Z,3.90
2019-05-02T14:25:13.319Z,3.98
2019-05-02T14:27:52.396Z,3.50
2019-05-02T14:30:35.957Z,3.85
2019-05-02T14:33:04.977Z,3.20
2019-05-02T14:35:39.850Z,3.98
2019-05-02T14:38:15.371Z,3.40
2019-05-02T14:41:03.705Z,3.30
2019-05-02T14:43:54.607Z,3.83
2019-05-02T14:49:05.687Z,3.40
2019-05-02T14:51:41.780Z,3.72
2019-05-02T14:54:17.678Z,4.03
2019-05-02T14:56:56.824Z,3.70
2019-05-02T14:59:32.272Z,3.70
2019-05-02T15:02:08.946Z,3.70
2019-05-02T15:04:48.649Z,3.45
2019-05-02T15:07:22.916Z,3.60
2019-05-02T15:09:57.273Z,3.20
2019-05-02T15:12:32.838Z,3.27
2019-05-02T15:15:08.873Z,3.17
2019-05-02T15:17:43.604Z,3.47
2019-05-02T15:20:18.365Z,3.02
2019-05-02T15:22:53.020Z,3.12
2019-05-02T15:25:27.751Z,2.95
2019-05-02T15:28:02.592Z,3.05
2019-05-02T15:30:44.802Z,3.08
2019-05-02T15:33:17.126Z,3.20
2019-05-02T15:35:57.292Z,3.35
2019-05-02T15:38:37.137Z,3.12
2019-05-02T15:41:12.609Z,3.22
2019-05-02T15:43:49.092Z,3.20
2019-05-02T15:46:23.716Z,3.58
2019-05-02T15:49:01.786Z,3.20
2019-05-02T15:51:38.105Z,3.20
2019-05-02T15:54:12.527Z,3.25
2019-05-02T15:57:00.426Z,3.25
2019-05-02T15:59:41.673Z,3.20
2019-05-02T16:02:22.957Z,3.35
2019-05-02T16:04:57.166Z,3.10
2019-05-02T16:07:32.497Z,3.50
2019-05-02T16:10:10.406Z,3.42
2019-05-02T16:12:46.734Z,3.45
2019-05-02T16:15:26.217Z,3.45
2019-05-02T16:18:03.951Z,3.20
2019-05-02T16:20:49.234Z,3.45
2019-05-02T16:23:31.851Z,3.85
2019-05-02T16:26:02.062Z,3.42
2019-05-02T16:28:36.958Z,3.10
2019-05-02T16:31:17.037Z,3.47
2019-05-02T16:33:54.779Z,3.30
2019-05-02T16:36:35.685Z,3.58
2019-05-02T16:39:09.894Z,2.80
2019-05-02T16:41:49.058Z,3.65
2019-05-02T16:44:18.101Z,3.30
2019-05-02T16:46:54.397Z,3.50
2019-05-02T16:49:29.159Z,2.95
2019-05-02T16:52:07.353Z,3.52
2019-05-02T16:54:41.746Z,3.15
2019-05-02T16:57:17.457Z,3.55
2019-05-02T16:59:54.020Z,2.85
2019-05-02T17:02:29.378Z,3.35
2019-05-02T17:05:09.277Z,3.90
2019-05-02T17:07:49.365Z,3.50
2019-05-02T17:10:32.185Z,3.50
2019-05-02T17:13:08.686Z,4.00
2019-05-02T17:15:43.302Z,3.95
2019-05-02T17:18:18.419Z,3.55
2019-05-02T17:20:57.125Z,3.65
2019-05-02T17:23:30.661Z,3.67
2019-05-02T17:26:05.430Z,3.42
2019-05-02T17:28:43.331Z,3.22
2019-05-02T17:31:19.262Z,3.52
2019-05-02T17:33:55.005Z,3.55
2019-05-02T17:36:30.609Z,4.15
2019-05-02T17:39:08.420Z,3.75
2019-05-02T17:41:45.717Z,3.83
2019-05-02T17:44:22.194Z,6.90
2019-05-02T17:46:58.199Z,6.33
2019-05-02T17:49:36.576Z,5.00
2019-05-02T17:52:28.298Z,4.60
2019-05-02T17:55:03.395Z,5.00
2019-05-02T17:57:38.133Z,5.72
2019-05-02T18:00:21.612Z,5.00
2019-05-02T18:02:56.448Z,4.28
2019-05-02T18:05:35.483Z,4.40
2019-05-02T18:08:10.721Z,3.77
2019-05-02T18:10:44.018Z,4.08
2019-05-02T18:13:18.777Z,4.03
2019-05-02T18:15:53.617Z,3.90
2019-05-02T18:18:28.413Z,4.00
2019-05-02T18:21:03.200Z,4.78
2019-05-02T18:23:38.001Z,4.97
2019-05-02T18:26:12.922Z,5.60
2019-05-02T18:28:49.393Z,4.75
2019-05-02T18:31:24.014Z,4.53
2019-05-02T18:33:58.705Z,4.60
2019-05-02T18:36:33.488Z,4.53
2019-05-02T18:39:08.658Z,4.47
2019-05-02T18:41:46.311Z,4.60
2019-05-02T18:44:21.762Z,4.87
2019-05-02T18:46:57.779Z,5.05
2019-05-02T18:49:32.392Z,4.90
2019-05-02T18:52:07.178Z,5.55
2019-05-02T18:54:43.875Z,5.53
2019-05-02T18:57:24.457Z,5.35
2019-05-02T18:59:58.087Z,5.80
2019-05-02T19:02:35.608Z,5.70
2019-05-02T19:05:13.487Z,6.20
2019-05-02T19:07:47.294Z,6.55
2019-05-02T19:10:22.218Z,7.75
2019-05-02T19:13:01.130Z,7.62
2019-05-02T19:15:39.475Z,8.03
2019-05-02T19:18:10.567Z,7.15
2019-05-02T19:20:57.382Z,7.30
2019-05-02T19:23:32.811Z,7.78
2019-05-02T19:26:14.682Z,7.83
2019-05-02T19:28:45.987Z,6.25
2019-05-02T19:31:22.450Z,6.15
2019-05-02T19:33:57.306Z,6.17
2019-05-02T19:36:32.816Z,6.92
2019-05-02T19:39:09.887Z,7.35
2019-05-02T19:41:45.700Z,6.50
2019-05-02T19:44:28.645Z,6.92
2019-05-02T19:46:56.957Z,7.87
2019-05-02T19:49:32.902Z,7.62
2019-05-02T19:52:07.845Z,7.25
2019-05-02T19:54:43.636Z,8.00
2019-05-02T19:57:24.849Z,8.33
2019-05-02T19:59:57.164Z,7.33
2019-05-02T20:02:32.702Z,7.15
2019-05-02T20:05:07.605Z,6.72
2019-05-02T20:07:42.683Z,7.45
2019-05-02T20:10:18.151Z,6.78
2019-05-02T20:12:54.129Z,7.60
2019-05-02T20:15:32.679Z,6.83
2019-05-02T20:18:07.553Z,6.62
2019-05-02T20:20:49.195Z,6.47
2019-05-02T20:23:31.265Z,6.10
2019-05-02T20:26:00.380Z,6.42
2019-05-02T20:28:35.142Z,6.67
2019-05-02T20:31:09.875Z,6.95
2019-05-02T20:33:44.628Z,6.58
2019-05-02T20:36:19.424Z,7.20
2019-05-02T20:38:54.113Z,7.15
2019-05-02T20:41:28.896Z,6.12
2019-05-02T20:44:03.786Z,6.20
2019-05-02T20:46:38.433Z,6.17
2019-05-02T20:49:13.199Z,5.90
2019-05-02T20:51:48.177Z,6.10
2019-05-02T20:54:22.930Z,5.90
2019-05-02T20:56:57.684Z,6.03
2019-05-02T20:59:32.352Z,6.60
2019-05-02T21:02:07.131Z,6.62
2019-05-02T21:04:42.534Z,6.60
2019-05-02T21:07:22.204Z,6.28
2019-05-02T21:10:13.813Z,6.40
2019-05-02T21:12:48.588Z,6.15
2019-05-02T21:15:23.342Z,6.45
2019-05-02T21:17:58.140Z,6.12
2019-05-02T21:20:32.894Z,6.05
2019-05-02T21:23:07.702Z,5.95
2019-05-02T21:25:42.465Z,6.50
2019-05-02T21:28:17.181Z,5.97
2019-05-02T21:30:52.367Z,6.30
2019-05-02T21:33:42.523Z,6.25
2019-05-02T21:36:17.118Z,6.70
2019-05-02T21:38:52.197Z,6.53
2019-05-02T21:41:27.015Z,6.12
2019-05-02T21:44:02.501Z,6.90
2019-05-02T21:46:37.458Z,6.80
2019-05-02T21:49:13.895Z,6.33
2019-05-02T21:51:51.819Z,6.20
2019-05-02T21:54:30.826Z,6.72
2019-05-02T21:57:07.194Z,8.58
2019-05-02T21:59:42.152Z,9.15
2019-05-02T22:02:18.442Z,9.03
2019-05-02T22:04:53.243Z,10.95
2019-05-02T22:07:28.008Z,11.73
2019-05-02T22:10:27.772Z,15.72
2019-05-02T22:13:02.541Z,14.28
2019-05-02T22:15:37.347Z,15.05
2019-05-02T22:18:12.107Z,13.95
2019-05-02T22:20:46.904Z,11.45
2019-05-02T22:23:21.672Z,8.63
2019-05-02T22:25:56.464Z,8.03
2019-05-02T22:28:32.747Z,8.20
2019-05-02T22:31:07.617Z,7.25
2019-05-02T22:33:44.681Z,8.50
2019-05-02T22:36:18.703Z,8.95
2019-05-02T22:39:02.079Z,8.93
2019-05-02T22:41:36.892Z,11.60
2019-05-02T22:44:12.493Z,10.48
2019-05-02T22:46:47.307Z,9.58
2019-05-02T22:49:22.521Z,7.83
2019-05-02T22:51:57.494Z,7.28
2019-05-02T22:54:33.811Z,7.00
2019-05-02T22:57:08.843Z,7.03
2019-05-02T22:59:43.528Z,6.78
2019-05-02T23:02:18.315Z,5.87
2019-05-02T23:04:53.079Z,6.78
2019-05-02T23:07:27.825Z,6.80
2019-05-02T23:10:02.485Z,6.90
2019-05-02T23:12:37.274Z,7.85
2019-05-02T23:15:12.578Z,8.73
2019-05-02T23:17:47.721Z,8.63
2019-05-02T23:20:24.391Z,10.05
2019-05-02T23:22:58.868Z,10.08
2019-05-02T23:25:51.981Z,9.45
2019-05-02T23:28:28.477Z,8.65
2019-05-02T23:31:03.242Z,9.35
2019-05-02T23:33:57.395Z,9.75
2019-05-02T23:36:32.799Z,8.33
2019-05-02T23:39:09.944Z,8.98
2019-05-02T23:41:44.696Z,9.13
2019-05-02T23:44:19.342Z,8.35
2019-05-02T23:46:54.101Z,8.58
2019-05-02T23:49:29.965Z,8.73
2019-05-02T23:52:04.817Z,8.10
2019-05-02T23:54:49.187Z,7.85
2019-05-02T23:57:15.837Z,8.75
2019-05-02T23:59:51.810Z,8.10
